KMDH Weather | Aviation | SIU

Home
Southern Illinois University

CONTACT

SIU.EDU

Aviation - Weather

College of Applied Sciences and Arts

KMDH Weather

NOTICE: Although all weather products are taken from the National Weather Service, this data should be used only as a supplement to a formal weather briefing.

Last Updated: Wednesday, April 24th, 2019, 3:27 pm
Information on this page is updated every 5 minutes.


METARS

KMDH 242013Z 31009KT 1SM VCTS +RA BR FEW006 BKN015 OVC028 18/18 A2986 RMK AO2

KMDH 242003Z 31008G16KT 1 1/2SM VCTS +RA BR BKN013 BKN030 OVC060 19/18 A2985 RMK

KMDH 241958Z 32008G16KT 2 1/2SM VCTS RA BR SCT016 BKN030 OVC055 19/18 A2985 RMK

KMDH 241952Z 34008KT 3SM RA BR SCT029 BKN055 OVC090 19/18 A2985 RMK AO2 LTG DSNT

KMDH 241852Z 35007KT 9SM -RA SCT060 BKN075 OVC100 21/18 A2985 RMK AO2 LTG DSNT

KMDH 241752Z 30003KT 10SM FEW034 BKN085 OVC100 22/16 A2987 RMK AO2 SLP114

KMWA 241945Z 35008KT 3SM RA BKN014 OVC028 17/17 A2986 RMK TSE42 TS MOVD NE

KMWA 241933Z 35006KT 1SM +TSRA BKN014 OVC022 17/16 A2987 RMK OCNL LTGCG NE TS NE

KMWA 241926Z 22010KT 2 1/2SM RA SCT014 BKN022 OVC033 19/17 A2987

KMWA 241845Z 31004KT 10SM BKN037 23/16 A2986

KMWA 241745Z 23008KT 20SM BKN035 BKN046 BKN080 23/17 A2989

KCGI 242020Z 31012KT 1 3/4SM R10/5000VP6000FT +TSRA BR FEW014 BKN045 OVC060

KCGI 242008Z 29014KT 2 1/2SM TSRA BR FEW014 BKN041 OVC085 19/17 A2985 RMK AO2 PK

KCGI 242000Z 29015G27KT 4SM VCTS RA FEW013 BKN055 OVC090 20/17 A2985 RMK AO2 PK

KCGI 241953Z 27014KT 7SM VCTS -RA SCT043 BKN060 OVC085 22/17 A2984 RMK AO2 WSHFT

KCGI 241941Z 21013G21KT 10SM VCTS -RA SCT039 BKN050 OVC090 23/16 A2983 RMK AO2

KCGI 241853Z 18010KT 10SM FEW042 SCT055 BKN070 24/17 A2983 RMK AO2 LTG DSNT W-NE

KCGI 241753Z 18009KT 10SM FEW032 FEW080 SCT110 25/18 A2986 RMK AO2 SLP108

KSAR 241955Z AUTO 00000KT 5SM DZ SCT005 BKN065 OVC075 17/17 A2989 RMK AO2

KSAR 241935Z AUTO 05003KT 5SM BR BKN007 BKN020 OVC065 17/17 A2989 RMK AO2

KSAR 241915Z AUTO 00000KT 5SM -DZ BKN009 BKN014 OVC020 17/17 A2990 RMK AO2 LTG

KSAR 241855Z AUTO 31004KT 7SM RA BKN009 BKN014 OVC034 18/18 A2991 RMK AO2 P0001

KSAR 241835Z AUTO 00000KT 10SM -RA SCT007 BKN070 OVC110 18/18 A2990 RMK AO2

KSAR 241815Z AUTO 06005KT 7SM SCT031 SCT050 BKN085 18/18 A2989 RMK AO2 T01810181

KSAR 241755Z AUTO 04003KT 4SM -RA SCT026 BKN050 OVC060 17/17 A2991 RMK AO2 P0004

KSAR 241735Z AUTO 00000KT 7SM RA SCT050 OVC065 18/18 A2993 RMK AO2 P0001

KFAM 242013Z AUTO 07003KT 8SM -RA FEW005 BKN060 OVC095 18/18 A2986 RMK AO2 P0001

KFAM 241956Z AUTO 12003KT 7SM RA BKN060 OVC075 18/17 A2988 RMK AO2 SLP114 P0012

KFAM 241856Z AUTO 00000KT 10SM RA FEW017 BKN050 OVC075 19/17 A2990 RMK AO2 LTG

KFAM 241854Z AUTO 34003KT 10SM -RA FEW017 BKN050 OVC075 19/16 A2990 RMK AO2 LTG

KFAM 241811Z AUTO 33008KT 10SM BKN017 BKN024 OVC050 21/17 A2989 RMK AO2 LTG DSNT

KFAM 241756Z AUTO 34003KT 10SM SCT017 BKN050 21/17 A2990 RMK AO2 LTG DSNT S

KMVN 242018Z AUTO VRB03KT 2 1/2SM -RA BR FEW005 BKN042 OVC055 18/17 A2986 RMK

KMVN 241956Z AUTO VRB03KT 7SM -RA SCT040 OVC055 18/17 A2987 RMK AO2 RAE20B54

KMVN 241856Z AUTO 02004KT 7SM -RA SCT026 OVC037 18/17 A2989 RMK AO2 RAB02 SLP120

KMVN 241846Z AUTO 02004KT 7SM -RA BKN026 OVC037 18/16 A2990 RMK AO2 RAB02 P0000

KMVN 241756Z AUTO 07003KT 10SM BKN043 20/16 A2991 RMK AO2 SLP125 60000 T02000156

KHSB 242015Z AUTO 32010G14KT 5SM -RA SCT008 BKN040 OVC048 19/19 A2985 RMK AO2

KHSB 241955Z AUTO 33009G15KT 10SM TSRA BKN042 BKN049 OVC095 20/20 A2984 RMK AO2

KHSB 241935Z AUTO 30006KT A2984 RMK AO2 PWINO

KCIR 242015Z AUTO 19010G14KT 10SM VCTS SCT060 BKN070 OVC085 24/16 A2983 RMK AO2

KCIR 241955Z AUTO 19007KT 10SM SCT043 BKN060 OVC070 24/16 A2983 RMK AO2 LTG DSNT

KCIR 241935Z AUTO 18007KT 10SM SCT043 BKN060 OVC110 25/16 A2983 RMK AO2 LTG DSNT

KPAH 241953Z 23008KT 10SM FEW041 FEW050 26/16 A2982 RMK AO2 SLP096 T02610161

KPOF 241953Z AUTO 29008KT 8SM VCTS -RA BKN034 BKN055 BKN080 22/18 A2985 RMK AO2

KFAM 242013Z AUTO 07003KT 8SM -RA FEW005 BKN060 OVC095 18/18 A2986 RMK AO2 P0001

KFAM 241956Z AUTO 12003KT 7SM RA BKN060 OVC075 18/17 A2988 RMK AO2 SLP114 P0012

KBLV 241956Z 00000KT 5SM -RA BR OVC005 16/16 A2986 RMK AO2A

KTBN 241939Z AUTO 00000KT 10SM -DZ OVC005 16/16 A2986 RMK AO2 DZB39 SLP111 $

KVIH 241953Z AUTO 00000KT 10SM OVC005 16/13 A2986 RMK AO2 SLP108 T01560133

KENL 242015Z AUTO 00000KT 3SM -RA SCT007 BKN047 OVC070 18/18 A2987 RMK AO2 LTG

KENL 241955Z AUTO 00000KT 3SM RA SCT047 SCT050 OVC070 18/17 A2987 RMK AO2 P0001

KENL 241935Z AUTO 00000KT 4SM -RA SCT006 BKN070 OVC095 18/18 A2987 RMK AO2

KMTO 241953Z AUTO 00000KT 10SM -RA BKN021 BKN075 OVC100 13/10 A2989 RMK AO2

KMTO 241945Z AUTO VRB04G19KT 10SM -RA SCT021 SCT055 OVC100 12/09 A2989 RMK AO2

KFWC 242015Z AUTO 01005KT 3SM BR SCT028 BKN045 OVC055 17/17 A2984 RMK AO1 LTG

KFWC 241955Z AUTO 36003KT 2 1/2SM -RA BKN030 OVC035 17/17 A2985 RMK AO1 P0001

KFWC 241935Z AUTO 35006KT 4SM -RA OVC034 18/18 A2986 RMK AO1 P0001 T01760175

KCUL 242017Z AUTO 00000KT 4SM RA SCT038 BKN060 OVC080 19/19 A2984 RMK AO2 LTG

KCUL 241937Z AUTO 30010KT 2SM +TSRA SCT021 SCT031 OVC041 21/18 A2985 RMK AO2 LTG

KEVV 241954Z VRB04KT 10SM SCT049 OVC060 26/15 A2984 RMK AO2 LTG DSNT W SLP100

KCEY 242015Z AUTO 19004KT 10SM FEW047 BKN065 26/16 A2985 RMK AO1

KCEY 241955Z AUTO 19009KT 130V210 10SM SCT047 SCT060 27/16 A2985 RMK AO1

KCEY 241935Z AUTO 16010KT 130V240 10SM SCT047 BKN060 27/15 A2985 RMK AO1

KHOP 241956Z AUTO 20006KT 10SM SCT060 SCT130 SCT210 26/14 A2985 RMK AO2 SLP107

KARG 241956Z AUTO 19017G21KT 10SM SCT049 SCT055 BKN070 27/17 A2982 RMK AO2 LTG

KJBR 241953Z AUTO 20017G23KT 10SM BKN065 26/18 A2985 RMK AO2 SLP105 T02560178

KALN 241950Z 00000KT 3SM -RA OVC006 14/14 A2988

KALN 241950Z 00000KT 3SM -RA OVC006 14/14 A2988

KCOU 241954Z 00000KT 9SM OVC010 17/14 A2986 RMK AO2 SLP110 T01720139

KAJG 241955Z AUTO 35009KT 10SM -RA SCT038 BKN070 OVC100 17/15 A2987 RMK AO2

KAJG 241935Z AUTO 03007KT 10SM -DZ SCT036 BKN055 OVC100 18/14 A2987 RMK AO2

KM30 242015Z AUTO 22004KT 10SM SCT043 SCT070 BKN110 25/16 A2984 RMK AO2 LTG DSNT

KM30 241955Z AUTO 19007KT 10SM SCT043 BKN110 25/16 A2984 RMK AO2 T02510161

KM30 241935Z AUTO 20011G15KT 10SM SCT048 SCT060 27/17 A2984 RMK AO2 LTG DSNT NW

KDEC 241954Z 11011KT 10SM OVC014 13/07 A2989 RMK AO2 SLP121 T01280072

KDEC 241946Z 10009KT 10SM OVC014 12/07 A2990 RMK AO2 T01220067

KIJX 241955Z AUTO 10006KT 4SM BR OVC006 12/11 A2988 RMK AO2 T01220112

KIJX 241935Z AUTO 09008KT 5SM BR OVC006 12/11 A2988 RMK AO2 T01220111


TAFS

KEVV 241741Z 2418/2518 18006KT P6SM FEW035 BKN100

        FM242200 22005KT 5SM SHRA BR VCTS OVC045CB

        FM250300 VRB03KT 6SM -SHRA BR OVC070

        FM250900 00000KT 6SM -SHRA BR OVC024

        FM251200 VRB03KT P6SM OVC009

        FM251600 20005KT 6SM -SHRA BR OVC016


Winds Aloft



Pilot Reports

No pilot reports found for area.



Area Forecast



Significant Weather

WAUS43 KKCI 241815 AAA CHIT WA 241815 AMD AIRMET TANGO UPDT 5 FOR TURB AND LLWS VALID UNTIL 242100 AIRMET TURB...NE KS IA MO LM MI IL IN KY OK TX AR FROM 20NE DXO TO FWA TO CVG TO HNN TO 40WNW IIU TO 50WNW ARG TO 30W TXK TO DLF TO 90S MRF TO ELP TO INK TO 30ESE TBE TO 50W LBL TO 40ESE LAA TO 20ESE DSM TO 40S BAE TO 20NE DXO MOD TURB BTN 150 AND FL410. CONDS CONTG BYD 21Z THRU 03Z. LLWS POTENTIAL...MN WI LS MI BOUNDED BY 30W YQT-70ESE YQT-50ESE DLH-30WSW DLH-80ESE INL-30W YQT LLWS EXP. CONDS ENDG 18-21Z. OTLK VALID 2100-0300Z AREA 1...TURB KS IA MO LM MI IL IN KY OK TX AR TN LA MS BOUNDED BY 30SSE ECK-FWA-CVG-HNN-50S HNN-50NE LOZ-60SSW PXV-50S MEM-70SE TTT-DLF-90S MRF-ELP-INK-60NNE TCC-50WSW ICT-20E DSM- 30SSE ECK MOD TURB BTN 150 AND FL410. CONDS CONTG THRU 03Z. AREA 2...TURB ND SD NE MN BOUNDED BY 50NNW MOT-80SE YWG-70SE RAP-70SW RAP-20W ISN-50NNW MOT MOD TURB BTN FL210 AND FL330. CONDS DVLPG AFT 21Z. CONDS CONTG THRU 03Z.
WSUS32 KKCI 241855 SIGC CONVECTIVE SIGMET 64C VALID UNTIL 2055Z IL MO AR FROM 40W PXV-40NW DYR-40N LIT-60NNW LIT-20WNW FAM-40W PXV AREA EMBD TS MOV FROM 22025KT. TOPS TO FL400. OUTLOOK VALID 242055-250055 AREA 1...FROM TTH-30NW BNA-40NW MEM-30S ELD-50WSW TTT-40S UIN-TTH WST ISSUANCES POSS. REFER TO MOST RECENT ACUS01 KWNS FROM STORM PREDICTION CENTER FOR SYNOPSIS AND METEOROLOGICAL DETAILS. AREA 2...FROM 30S ELD-30E IAH-CRP-50NW LRD-40SSE DLF-60WNW DLF-60W ABI-30S ELD REF WW 0098. WST ISSUANCES POSS. REFER TO MOST RECENT ACUS01 KWNS FROM STORM PREDICTION CENTER FOR SYNOPSIS AND METEOROLOGICAL DETAILS. AREA 3...FROM SHR-50NNW RAP-SNY-70WNW LAR-SHR WST ISSUANCES POSS. REFER TO MOST RECENT ACUS01 KWNS FROM STORM PREDICTION CENTER FOR SYNOPSIS AND METEOROLOGICAL DETAILS.
WSUS33 KKCI 241955 SIGW CONVECTIVE SIGMET 5W VALID UNTIL 2155Z MT FROM 20ENE BIL-50SW BIL LINE TS 25 NM WIDE MOV FROM 33025KT. TOPS TO FL260. OUTLOOK VALID 242155-250155 FROM 30SSW BIL-SHR-70WNW LAR-30ENE BPI-PIH-DLN-30SSW BIL WST ISSUANCES POSS. REFER TO MOST RECENT ACUS01 KWNS FROM STORM PREDICTION CENTER FOR SYNOPSIS AND METEOROLOGICAL DETAILS.
WSUS32 KKCI 241955 SIGC CONVECTIVE SIGMET 68C VALID UNTIL 2155Z IN IL MO AR FROM 20N PXV-40NNW DYR-50WSW ARG-60W ARG-20NE FAM-20N PXV AREA SEV EMBD TS MOV FROM 22030KT. TOPS ABV FL450. HAIL TO 1 IN...WIND GUSTS TO 50KT POSS. OUTLOOK VALID 242155-250155 AREA 1...FROM TTH-30NNW BNA-MEM-30S ELD-50WSW TTT-40S UIN-TTH WST ISSUANCES POSS. REFER TO MOST RECENT ACUS01 KWNS FROM STORM PREDICTION CENTER FOR SYNOPSIS AND METEOROLOGICAL DETAILS. AREA 2...FROM 30S ELD-30E IAH-CRP-50NW LRD-DLF-70NW DLF-80SSE MRF-30W FST-50ENE MAF-30S ELD REF WW 0098. WST ISSUANCES POSS. REFER TO MOST RECENT ACUS01 KWNS FROM STORM PREDICTION CENTER FOR SYNOPSIS AND METEOROLOGICAL DETAILS. AREA 3...FROM SHR-50NNW RAP-SNY-70WNW LAR-SHR WST ISSUANCES POSS. REFER TO MOST RECENT ACUS01 KWNS FROM STORM PREDICTION CENTER FOR SYNOPSIS AND METEOROLOGICAL DETAILS.
WAUS43 KKCI 241445 CHIS WA 241445 AIRMET SIERRA UPDT 3 FOR IFR VALID UNTIL 242100 AIRMET IFR...KS IA MO IL FROM IOW TO 40SSE JOT TO 20NW PXV TO 40NE ARG TO RZC TO OSW TO 50W OSW TO MCI TO IOW CIG BLW 010/VIS BLW 3SM PCPN/BR. CONDS CONTG BYD 21Z THRU 03Z. OTLK VALID 2100-0300Z...IFR MO IL IN KY BOUNDED BY 30ESE IRK-20WNW AXC-40SE AXC-60SSE IND-IIU-30N BWG- 60S PXV-30ENE FAM-50WSW FAM-50S COU-30ESE IRK CIG BLW 010/VIS BLW 3SM BR. CONDS CONTG THRU 03Z.
WAUS45 KKCI 241445 SLCS WA 241445 AIRMET SIERRA UPDT 2 FOR IFR AND MTN OBSCN VALID UNTIL 242100 AIRMET MTN OBSCN...ID MT WA OR FROM 30SSE YXC TO 40SSW YQL TO GTF TO 40S DLN TO 60SSE LKT TO 60SSE BKE TO 20NW PDT TO 40SW MLP TO 30SSE YXC MTNS OBSC BY CLDS. CONDS ENDG 18-21Z.
WAUS46 KKCI 241445 SFOS WA 241445 AIRMET SIERRA UPDT 2 FOR IFR AND MTN OBSCN VALID UNTIL 242100 AIRMET MTN OBSCN...WA OR ID MT FROM 30SSE YXC TO 40SSW YQL TO GTF TO 40S DLN TO 60SSE LKT TO 60SSE BKE TO 20NW PDT TO 40SW MLP TO 30SSE YXC MTNS OBSC BY CLDS. CONDS ENDG 18-21Z.
WAUS44 KKCI 241445 DFWT WA 241445 AIRMET TANGO UPDT 3 FOR TURB VALID UNTIL 242100 AIRMET TURB...OK TX AR NE KS IA MO LM MI IL IN KY FROM 20NE DXO TO FWA TO CVG TO HNN TO 40WNW IIU TO 50WNW ARG TO 30W TXK TO DLF TO 90S MRF TO ELP TO INK TO 30ESE TBE TO 50W LBL TO 40ESE LAA TO 20ESE DSM TO 40S BAE TO 20NE DXO MOD TURB BTN 150 AND FL410. CONDS CONTG BYD 21Z THRU 03Z. OTLK VALID 2100-0300Z...TURB OK TX AR TN LA MS KS IA MO LM MI IL IN KY BOUNDED BY 30SSE ECK-FWA-CVG-HNN-50S HNN-50NE LOZ-60SSW PXV-50S MEM-70SE TTT-DLF-90S MRF-ELP-INK-60NNE TCC-50WSW ICT-20E DSM- 30SSE ECK MOD TURB BTN 150 AND FL410. CONDS CONTG THRU 03Z.
WAUS44 KKCI 241445 DFWZ WA 241445 AIRMET ZULU UPDT 3 FOR ICE AND FRZLVL VALID UNTIL 242100 AIRMET ICE...OK TX AR LA MO IL FROM 50WSW AXC TO 30SSE AXC TO 30N PXV TO 20NNW LIT TO 20ENE ELD TO 20ENE EIC TO 30W AEX TO 60NNW DLF TO 70W MRF TO 60E ELP TO 30NNE ABI TO 20SSW FSM TO 30E COU TO 50WSW AXC MOD ICE BTN 110 AND FL240. CONDS CONTG BYD 21Z THRU 03Z. OTLK VALID 2100-0300Z...ICE OK TX AR TN LA MS MO IL IN KY BOUNDED BY IND-60E CVG-70SE CVG-40ENE LIT-40W SQS-40WSW MLU-30W AEX-50ESE ACT-20E JCT-20SSW SJT-20NW ABI-30WNW ADM-50SE RZC-20WSW FAM-IND MOD ICE BTN 110 AND FL240. CONDS CONTG THRU 03Z. FRZLVL...RANGING FROM 100-150 ACRS AREA 120 ALG 20W DLF-60SSE ABI-ACT-30NNE TXK-20NE BNA
WAUS43 KKCI 241445 CHIZ WA 241445 AIRMET ZULU UPDT 3 FOR ICE AND FRZLVL VALID UNTIL 242100 AIRMET ICE...MO IL OK TX AR LA FROM 50WSW AXC TO 30SSE AXC TO 30N PXV TO 20NNW LIT TO 20ENE ELD TO 20ENE EIC TO 30W AEX TO 60NNW DLF TO 70W MRF TO 60E ELP TO 30NNE ABI TO 20SSW FSM TO 30E COU TO 50WSW AXC MOD ICE BTN 110 AND FL240. CONDS CONTG BYD 21Z THRU 03Z. OTLK VALID 2100-0300Z AREA 1...ICE WI LM LS MI LH BOUNDED BY YQT-20E SSM-30NW TVC-50SSW SAW-20WSW RHI-YQT MOD ICE BTN FRZLVL AND 150. FRZLVL 060-080. CONDS CONTG THRU 03Z. AREA 2...ICE ND SD NE MN IA BOUNDED BY 20WNW ISN-40NNE ABR-50WSW BRD-20SW MSP-20ESE ONL-50W ANW-20SW SNY-BFF-70SW RAP-20WNW ISN MOD ICE BTN FRZLVL AND FL200. FRZLVL 070-110. CONDS CONTG THRU 03Z. AREA 3...ICE MO IL IN KY OK TX AR TN LA MS BOUNDED BY IND-60E CVG-70SE CVG-40ENE LIT-40W SQS-40WSW MLU-30W AEX-50ESE ACT-20E JCT-20SSW SJT-20NW ABI-30WNW ADM-50SE RZC-20WSW FAM-IND MOD ICE BTN 110 AND FL240. CONDS CONTG THRU 03Z. FRZLVL...RANGING FROM 040-125 ACRS AREA MULT FRZLVL 040-090 BOUNDED BY 60NW YVV-YVV-30ESE ECK-20NW ECK-60NW YVV 080 ALG 70SSW ISN-80E INL-50N RHI-40NNE GRB-40WSW ASP-30ESE ECK 120 ALG 20NE BNA-20WSW LOZ-HMV